sensor_id;sensor_type;location;lat;lon;timestamp;temperature;humidity
8340;DHT22;4207;49.314;7.162;2022-12-18T00:00:05;-7.40;99.90
8340;DHT22;4207;49.314;7.162;2022-12-18T00:02:39;-7.40;99.90
8340;DHT22;4207;49.314;7.162;2022-12-18T00:05:07;-7.30;99.90
8340;DHT22;4207;49.314;7.162;2022-12-18T00:07:35;-7.40;99.90
8340;DHT22;4207;49.314;7.162;2022-12-18T00:10:05;-7.40;99.90
8340;DHT22;4207;49.314;7.162;2022-12-18T00:12:33;-7.40;99.90
8340;DHT22;4207;49.314;7.162;2022-12-18T00:15:03;-7.30;99.90
8340;DHT22;4207;49.314;7.162;2022-12-18T00:17:31;-7.40;99.90
8340;DHT22;4207;49.314;7.162;2022-12-18T00:19:59;-7.40;99.90
8340;DHT22;4207;49.314;7.162;2022-12-18T00:22:27;-7.40;99.90
8340;DHT22;4207;49.314;7.162;2022-12-18T00:24:55;-7.40;99.90
8340;DHT22;4207;49.314;7.162;2022-12-18T00:27:23;-7.40;99.90
8340;DHT22;4207;49.314;7.162;2022-12-18T00:29:51;-7.40;99.90
8340;DHT22;4207;49.314;7.162;2022-12-18T00:32:21;-7.40;99.90
8340;DHT22;4207;49.314;7.162;2022-12-18T00:34:48;-7.40;99.90
8340;DHT22;4207;49.314;7.162;2022-12-18T00:37:16;-7.30;99.90
8340;DHT22;4207;49.314;7.162;2022-12-18T00:39:50;-7.40;99.90
8340;DHT22;4207;49.314;7.162;2022-12-18T00:42:19;-7.40;99.90
8340;DHT22;4207;49.314;7.162;2022-12-18T00:45:05;-7.40;99.90
8340;DHT22;4207;49.314;7.162;2022-12-18T00:47:40;-7.40;99.90
8340;DHT22;4207;49.314;7.162;2022-12-18T00:50:09;-7.40;99.90
8340;DHT22;4207;49.314;7.162;2022-12-18T00:52:40;-7.50;99.90
8340;DHT22;4207;49.314;7.162;2022-12-18T00:55:08;-7.50;99.90
8340;DHT22;4207;49.314;7.162;2022-12-18T00:57:36;-7.50;99.90
8340;DHT22;4207;49.314;7.162;2022-12-18T01:00:09;-7.60;99.90
8340;DHT22;4207;49.314;7.162;2022-12-18T01:02:38;-7.60;99.90
8340;DHT22;4207;49.314;7.162;2022-12-18T01:05:09;-7.60;99.90
8340;DHT22;4207;49.314;7.162;2022-12-18T01:07:37;-7.60;99.90
8340;DHT22;4207;49.314;7.162;2022-12-18T01:10:06;-7.60;99.90
8340;DHT22;4207;49.314;7.162;2022-12-18T01:12:35;-7.60;99.90
8340;DHT22;4207;49.314;7.162;2022-12-18T01:15:04;-7.60;99.90
8340;DHT22;4207;49.314;7.162;2022-12-18T01:17:32;-7.60;99.90
8340;DHT22;4207;49.314;7.162;2022-12-18T01:20:00;-7.60;99.90
8340;DHT22;4207;49.314;7.162;2022-12-18T01:22:30;-7.60;99.90
8340;DHT22;4207;49.314;7.162;2022-12-18T01:24:59;-7.70;99.90
8340;DHT22;4207;49.314;7.162;2022-12-18T01:27:27;-7.70;99.90
8340;DHT22;4207;49.314;7.162;2022-12-18T01:29:55;-7.70;99.90
8340;DHT22;4207;49.314;7.162;2022-12-18T01:32:24;-7.70;99.90
8340;DHT22;4207;49.314;7.162;2022-12-18T01:34:52;-7.70;99.90
8340;DHT22;4207;49.314;7.162;2022-12-18T01:37:20;-7.70;99.90
8340;DHT22;4207;49.314;7.162;2022-12-18T01:39:50;-7.80;99.90
8340;DHT22;4207;49.314;7.162;2022-12-18T01:42:19;-7.80;99.90
8340;DHT22;4207;49.314;7.162;2022-12-18T01:45:00;-7.90;99.90
8340;DHT22;4207;49.314;7.162;2022-12-18T01:47:40;-7.90;99.90
8340;DHT22;4207;49.314;7.162;2022-12-18T01:50:14;-7.90;99.90
8340;DHT22;4207;49.314;7.162;2022-12-18T01:52:43;-7.90;99.90
8340;DHT22;4207;49.314;7.162;2022-12-18T01:55:16;-7.90;99.90
8340;DHT22;4207;49.314;7.162;2022-12-18T01:57:46;-7.90;99.90
8340;DHT22;4207;49.314;7.162;2022-12-18T02:00:19;-8.00;99.90
8340;DHT22;4207;49.314;7.162;2022-12-18T02:02:47;-8.00;99.90
8340;DHT22;4207;49.314;7.162;2022-12-18T02:05:24;-8.00;99.90
8340;DHT22;4207;49.314;7.162;2022-12-18T02:08:02;-8.10;99.90
8340;DHT22;4207;49.314;7.162;2022-12-18T02:10:42;-8.10;99.90
8340;DHT22;4207;49.314;7.162;2022-12-18T02:13:17;-8.10;99.90
8340;DHT22;4207;49.314;7.162;2022-12-18T02:15:53;-8.20;99.90
8340;DHT22;4207;49.314;7.162;2022-12-18T02:18:25;-8.20;99.90
8340;DHT22;4207;49.314;7.162;2022-12-18T02:21:01;-8.20;99.90
8340;DHT22;4207;49.314;7.162;2022-12-18T02:23:47;-8.20;99.90
8340;DHT22;4207;49.314;7.162;2022-12-18T02:26:23;-8.30;99.90
8340;DHT22;4207;49.314;7.162;2022-12-18T02:28:56;-8.30;99.90
8340;DHT22;4207;49.314;7.162;2022-12-18T02:31:30;-8.30;99.90
8340;DHT22;4207;49.314;7.162;2022-12-18T02:34:03;-8.40;99.90
8340;DHT22;4207;49.314;7.162;2022-12-18T02:36:39;-8.40;99.90
8340;DHT22;4207;49.314;7.162;2022-12-18T02:39:11;-8.50;99.90
8340;DHT22;4207;49.314;7.162;2022-12-18T02:41:53;-8.50;99.90
8340;DHT22;4207;49.314;7.162;2022-12-18T02:44:23;-8.50;99.90
8340;DHT22;4207;49.314;7.162;2022-12-18T02:46:53;-8.60;99.90
8340;DHT22;4207;49.314;7.162;2022-12-18T02:49:31;-8.60;99.90
8340;DHT22;4207;49.314;7.162;2022-12-18T02:52:10;-8.50;99.90
8340;DHT22;4207;49.314;7.162;2022-12-18T02:54:55;-8.60;99.90
8340;DHT22;4207;49.314;7.162;2022-12-18T02:57:34;-8.60;99.90
8340;DHT22;4207;49.314;7.162;2022-12-18T03:00:06;-8.60;99.90
8340;DHT22;4207;49.314;7.162;2022-12-18T03:02:39;-8.60;99.90
8340;DHT22;4207;49.314;7.162;2022-12-18T03:05:13;-8.60;99.90
8340;DHT22;4207;49.314;7.162;2022-12-18T03:07:46;-8.60;99.90
8340;DHT22;4207;49.314;7.162;2022-12-18T03:10:21;-8.60;99.90
8340;DHT22;4207;49.314;7.162;2022-12-18T03:12:54;-8.60;99.90
8340;DHT22;4207;49.314;7.162;2022-12-18T03:15:27;-8.70;99.90
8340;DHT22;4207;49.314;7.162;2022-12-18T03:18:07;-8.70;99.90
8340;DHT22;4207;49.314;7.162;2022-12-18T03:20:37;-8.70;99.90
8340;DHT22;4207;49.314;7.162;2022-12-18T03:23:09;-8.70;99.90
8340;DHT22;4207;49.314;7.162;2022-12-18T03:25:41;-8.70;99.90
8340;DHT22;4207;49.314;7.162;2022-12-18T03:28:15;-8.80;99.90
8340;DHT22;4207;49.314;7.162;2022-12-18T03:30:46;-8.70;99.90
8340;DHT22;4207;49.314;7.162;2022-12-18T03:33:18;-8.70;99.90
8340;DHT22;4207;49.314;7.162;2022-12-18T03:35:50;-8.80;99.90
8340;DHT22;4207;49.314;7.162;2022-12-18T03:38:18;-8.80;99.90
8340;DHT22;4207;49.314;7.162;2022-12-18T03:40:58;-8.80;99.90
8340;DHT22;4207;49.314;7.162;2022-12-18T03:43:41;-8.80;99.90
8340;DHT22;4207;49.314;7.162;2022-12-18T03:46:17;-8.80;99.90
8340;DHT22;4207;49.314;7.162;2022-12-18T03:48:52;-8.80;99.90
8340;DHT22;4207;49.314;7.162;2022-12-18T03:51:26;-8.90;99.90
8340;DHT22;4207;49.314;7.162;2022-12-18T03:53:58;-8.90;99.90
8340;DHT22;4207;49.314;7.162;2022-12-18T03:56:35;-8.90;99.90
8340;DHT22;4207;49.314;7.162;2022-12-18T03:59:08;-8.90;99.90
8340;DHT22;4207;49.314;7.162;2022-12-18T04:01:40;-8.90;99.90
8340;DHT22;4207;49.314;7.162;2022-12-18T04:04:13;-8.90;99.90
8340;DHT22;4207;49.314;7.162;2022-12-18T04:06:43;-8.90;99.90
8340;DHT22;4207;49.314;7.162;2022-12-18T04:09:13;-8.90;99.90
8340;DHT22;4207;49.314;7.162;2022-12-18T04:11:46;-8.90;99.90
8340;DHT22;4207;49.314;7.162;2022-12-18T04:14:16;-8.90;99.90
8340;DHT22;4207;49.314;7.162;2022-12-18T04:16:49;-8.90;99.90
8340;DHT22;4207;49.314;7.162;2022-12-18T04:19:20;-8.90;99.90
8340;DHT22;4207;49.314;7.162;2022-12-18T04:21:50;-8.90;99.90
8340;DHT22;4207;49.314;7.162;2022-12-18T04:24:19;-8.90;99.90
8340;DHT22;4207;49.314;7.162;2022-12-18T04:27:01;-8.90;99.90
8340;DHT22;4207;49.314;7.162;2022-12-18T04:29:39;-8.90;99.90
8340;DHT22;4207;49.314;7.162;2022-12-18T04:32:07;-9.00;99.90
8340;DHT22;4207;49.314;7.162;2022-12-18T04:34:36;-9.00;99.90
8340;DHT22;4207;49.314;7.162;2022-12-18T04:37:04;-9.00;99.90
8340;DHT22;4207;49.314;7.162;2022-12-18T04:39:32;-9.00;99.90
8340;DHT22;4207;49.314;7.162;2022-12-18T04:42:05;-9.00;99.90
8340;DHT22;4207;49.314;7.162;2022-12-18T04:44:33;-9.00;99.90
8340;DHT22;4207;49.314;7.162;2022-12-18T04:47:03;-9.00;99.90
8340;DHT22;4207;49.314;7.162;2022-12-18T04:49:31;-9.00;99.90
8340;DHT22;4207;49.314;7.162;2022-12-18T04:51:59;-9.00;99.90
8340;DHT22;4207;49.314;7.162;2022-12-18T04:54:27;-9.00;99.90
8340;DHT22;4207;49.314;7.162;2022-12-18T04:56:55;-9.00;99.90
8340;DHT22;4207;49.314;7.162;2022-12-18T04:59:23;-9.00;99.90
8340;DHT22;4207;49.314;7.162;2022-12-18T05:01:51;-9.00;99.90
8340;DHT22;4207;49.314;7.162;2022-12-18T05:04:21;-9.00;99.90
8340;DHT22;4207;49.314;7.162;2022-12-18T05:06:49;-9.10;99.90
8340;DHT22;4207;49.314;7.162;2022-12-18T05:09:17;-9.10;99.90
8340;DHT22;4207;49.314;7.162;2022-12-18T05:11:45;-9.10;99.90
8340;DHT22;4207;49.314;7.162;2022-12-18T05:14:13;-9.10;99.90
8340;DHT22;4207;49.314;7.162;2022-12-18T05:16:41;-9.20;99.90
8340;DHT22;4207;49.314;7.162;2022-12-18T05:19:09;-9.10;99.90
8340;DHT22;4207;49.314;7.162;2022-12-18T05:21:40;-9.20;99.90
8340;DHT22;4207;49.314;7.162;2022-12-18T05:24:08;-9.20;99.90
8340;DHT22;4207;49.314;7.162;2022-12-18T05:26:36;-9.20;99.90
8340;DHT22;4207;49.314;7.162;2022-12-18T05:29:04;-9.20;99.90
8340;DHT22;4207;49.314;7.162;2022-12-18T05:31:32;-9.20;99.90
8340;DHT22;4207;49.314;7.162;2022-12-18T05:34:05;-9.20;99.90
8340;DHT22;4207;49.314;7.162;2022-12-18T05:36:33;-9.20;99.90
8340;DHT22;4207;49.314;7.162;2022-12-18T05:39:03;-9.20;99.90
8340;DHT22;4207;49.314;7.162;2022-12-18T05:41:31;-9.20;99.90
8340;DHT22;4207;49.314;7.162;2022-12-18T05:44:00;-9.20;99.90
8340;DHT22;4207;49.314;7.162;2022-12-18T05:46:28;-9.30;99.90
8340;DHT22;4207;49.314;7.162;2022-12-18T05:48:59;-9.30;99.90
8340;DHT22;4207;49.314;7.162;2022-12-18T05:51:27;-9.30;99.90
8340;DHT22;4207;49.314;7.162;2022-12-18T05:53:55;-9.30;99.90
8340;DHT22;4207;49.314;7.162;2022-12-18T05:56:25;-9.40;99.90
8340;DHT22;4207;49.314;7.162;2022-12-18T05:58:54;-9.30;99.90
8340;DHT22;4207;49.314;7.162;2022-12-18T06:01:24;-9.40;99.90
8340;DHT22;4207;49.314;7.162;2022-12-18T06:03:53;-9.40;99.90
8340;DHT22;4207;49.314;7.162;2022-12-18T06:06:24;-9.40;99.90
8340;DHT22;4207;49.314;7.162;2022-12-18T06:08:53;-9.40;99.90
8340;DHT22;4207;49.314;7.162;2022-12-18T06:11:25;-9.40;99.90
8340;DHT22;4207;49.314;7.162;2022-12-18T06:13:55;-9.40;99.90
8340;DHT22;4207;49.314;7.162;2022-12-18T06:16:26;-9.40;99.90
8340;DHT22;4207;49.314;7.162;2022-12-18T06:18:56;-9.30;99.90
8340;DHT22;4207;49.314;7.162;2022-12-18T06:21:24;-9.20;99.90
8340;DHT22;4207;49.314;7.162;2022-12-18T06:23:52;-9.20;99.90
8340;DHT22;4207;49.314;7.162;2022-12-18T06:26:20;-9.20;99.90
8340;DHT22;4207;49.314;7.162;2022-12-18T06:28:55;-9.10;99.90
8340;DHT22;4207;49.314;7.162;2022-12-18T06:31:24;-9.10;99.90
8340;DHT22;4207;49.314;7.162;2022-12-18T06:33:52;-9.10;99.90
8340;DHT22;4207;49.314;7.162;2022-12-18T06:36:21;-9.10;99.90
8340;DHT22;4207;49.314;7.162;2022-12-18T06:38:49;-9.10;99.90
8340;DHT22;4207;49.314;7.162;2022-12-18T06:41:19;-9.10;99.90
8340;DHT22;4207;49.314;7.162;2022-12-18T06:43:47;-9.10;99.90
8340;DHT22;4207;49.314;7.162;2022-12-18T06:46:16;-9.10;99.90
8340;DHT22;4207;49.314;7.162;2022-12-18T06:48:47;-9.10;99.90
8340;DHT22;4207;49.314;7.162;2022-12-18T06:51:19;-9.10;99.90
8340;DHT22;4207;49.314;7.162;2022-12-18T06:53:47;-9.10;99.90
8340;DHT22;4207;49.314;7.162;2022-12-18T06:56:16;-9.10;99.90
8340;DHT22;4207;49.314;7.162;2022-12-18T06:58:44;-9.10;99.90
8340;DHT22;4207;49.314;7.162;2022-12-18T07:01:16;-9.10;99.90
8340;DHT22;4207;49.314;7.162;2022-12-18T07:03:45;-9.10;99.90
8340;DHT22;4207;49.314;7.162;2022-12-18T07:06:14;-9.10;99.90
8340;DHT22;4207;49.314;7.162;2022-12-18T07:08:45;-9.10;99.90
8340;DHT22;4207;49.314;7.162;2022-12-18T07:11:13;-9.10;99.90
8340;DHT22;4207;49.314;7.162;2022-12-18T07:13:42;-9.10;99.90
8340;DHT22;4207;49.314;7.162;2022-12-18T07:16:12;-9.10;99.90
8340;DHT22;4207;49.314;7.162;2022-12-18T07:18:51;-9.10;99.90
8340;DHT22;4207;49.314;7.162;2022-12-18T07:21:21;-9.10;99.90
8340;DHT22;4207;49.314;7.162;2022-12-18T07:23:49;-9.00;99.90
8340;DHT22;4207;49.314;7.162;2022-12-18T07:26:19;-9.00;99.90
8340;DHT22;4207;49.314;7.162;2022-12-18T07:28:48;-8.90;99.90
8340;DHT22;4207;49.314;7.162;2022-12-18T07:31:18;-8.80;99.90
8340;DHT22;4207;49.314;7.162;2022-12-18T07:33:47;-8.80;99.90
8340;DHT22;4207;49.314;7.162;2022-12-18T07:36:17;-8.80;99.90
8340;DHT22;4207;49.314;7.162;2022-12-18T07:38:48;-8.70;99.90
8340;DHT22;4207;49.314;7.162;2022-12-18T07:41:18;-8.70;99.90
8340;DHT22;4207;49.314;7.162;2022-12-18T07:43:46;-8.70;99.90
8340;DHT22;4207;49.314;7.162;2022-12-18T07:46:15;-8.60;99.90
8340;DHT22;4207;49.314;7.162;2022-12-18T07:48:44;-8.60;99.90
8340;DHT22;4207;49.314;7.162;2022-12-18T07:51:18;-8.60;99.90
8340;DHT22;4207;49.314;7.162;2022-12-18T07:53:46;-8.60;99.90
8340;DHT22;4207;49.314;7.162;2022-12-18T07:56:18;-8.60;99.90
8340;DHT22;4207;49.314;7.162;2022-12-18T07:58:54;-8.50;99.90
8340;DHT22;4207;49.314;7.162;2022-12-18T08:01:22;-8.50;99.90
8340;DHT22;4207;49.314;7.162;2022-12-18T08:03:51;-8.40;99.90
8340;DHT22;4207;49.314;7.162;2022-12-18T08:06:20;-8.40;99.90
8340;DHT22;4207;49.314;7.162;2022-12-18T08:08:51;-8.40;99.90
8340;DHT22;4207;49.314;7.162;2022-12-18T08:11:19;-8.30;99.90
8340;DHT22;4207;49.314;7.162;2022-12-18T08:13:47;-8.20;99.90
8340;DHT22;4207;49.314;7.162;2022-12-18T08:16:16;-8.20;99.90
8340;DHT22;4207;49.314;7.162;2022-12-18T08:18:44;-8.10;99.90
8340;DHT22;4207;49.314;7.162;2022-12-18T08:21:13;-8.00;99.90
8340;DHT22;4207;49.314;7.162;2022-12-18T08:23:43;-8.00;99.90
8340;DHT22;4207;49.314;7.162;2022-12-18T08:26:12;-7.90;99.90
8340;DHT22;4207;49.314;7.162;2022-12-18T08:28:42;-7.80;99.90
8340;DHT22;4207;49.314;7.162;2022-12-18T08:31:10;-7.80;99.90
8340;DHT22;4207;49.314;7.162;2022-12-18T08:33:39;-7.80;99.90
8340;DHT22;4207;49.314;7.162;2022-12-18T08:36:09;-7.70;99.90
8340;DHT22;4207;49.314;7.162;2022-12-18T08:38:37;-7.70;99.90
8340;DHT22;4207;49.314;7.162;2022-12-18T08:41:09;-7.70;99.90
8340;DHT22;4207;49.314;7.162;2022-12-18T08:43:37;-7.60;99.90
8340;DHT22;4207;49.314;7.162;2022-12-18T08:46:25;-7.60;99.90
8340;DHT22;4207;49.314;7.162;2022-12-18T08:48:54;-7.60;99.90
8340;DHT22;4207;49.314;7.162;2022-12-18T08:51:22;-7.60;99.90
8340;DHT22;4207;49.314;7.162;2022-12-18T08:53:50;-7.60;99.90
8340;DHT22;4207;49.314;7.162;2022-12-18T08:56:20;-7.50;99.90
8340;DHT22;4207;49.314;7.162;2022-12-18T08:58:51;-7.50;99.90
8340;DHT22;4207;49.314;7.162;2022-12-18T09:01:20;-7.40;99.90
8340;DHT22;4207;49.314;7.162;2022-12-18T09:03:48;-7.30;99.90
8340;DHT22;4207;49.314;7.162;2022-12-18T09:06:19;-7.20;99.90
8340;DHT22;4207;49.314;7.162;2022-12-18T09:08:47;-7.10;99.90
8340;DHT22;4207;49.314;7.162;2022-12-18T09:11:21;-6.90;99.90
8340;DHT22;4207;49.314;7.162;2022-12-18T09:13:49;-6.80;99.90
8340;DHT22;4207;49.314;7.162;2022-12-18T09:16:18;-6.70;99.90
8340;DHT22;4207;49.314;7.162;2022-12-18T09:18:50;-6.50;99.90
8340;DHT22;4207;49.314;7.162;2022-12-18T09:21:20;-6.30;99.90
8340;DHT22;4207;49.314;7.162;2022-12-18T09:23:50;-6.20;99.90
8340;DHT22;4207;49.314;7.162;2022-12-18T09:26:18;-6.00;99.90
8340;DHT22;4207;49.314;7.162;2022-12-18T09:28:48;-5.90;99.90
8340;DHT22;4207;49.314;7.162;2022-12-18T09:31:17;-5.80;99.90
8340;DHT22;4207;49.314;7.162;2022-12-18T09:33:46;-5.70;99.90
8340;DHT22;4207;49.314;7.162;2022-12-18T09:36:15;-5.60;99.90
8340;DHT22;4207;49.314;7.162;2022-12-18T09:38:44;-5.50;99.90
8340;DHT22;4207;49.314;7.162;2022-12-18T09:44:24;-5.20;99.90
8340;DHT22;4207;49.314;7.162;2022-12-18T09:47:01;-5.10;99.90
8340;DHT22;4207;49.314;7.162;2022-12-18T09:49:37;-5.10;99.90
8340;DHT22;4207;49.314;7.162;2022-12-18T09:52:11;-5.00;99.90
8340;DHT22;4207;49.314;7.162;2022-12-18T09:54:42;-4.90;99.90
8340;DHT22;4207;49.314;7.162;2022-12-18T09:57:14;-4.90;99.90
8340;DHT22;4207;49.314;7.162;2022-12-18T09:59:47;-4.80;99.90
8340;DHT22;4207;49.314;7.162;2022-12-18T10:02:20;-4.80;99.90
8340;DHT22;4207;49.314;7.162;2022-12-18T10:05:02;-4.70;99.90
8340;DHT22;4207;49.314;7.162;2022-12-18T10:07:46;-4.70;99.90
8340;DHT22;4207;49.314;7.162;2022-12-18T10:10:26;-4.70;99.90
8340;DHT22;4207;49.314;7.162;2022-12-18T10:13:01;-4.60;99.90
8340;DHT22;4207;49.314;7.162;2022-12-18T10:15:36;-4.60;99.90
8340;DHT22;4207;49.314;7.162;2022-12-18T10:18:19;-4.50;99.90
8340;DHT22;4207;49.314;7.162;2022-12-18T10:20:51;-4.50;99.90
8340;DHT22;4207;49.314;7.162;2022-12-18T10:23:25;-4.50;99.90
8340;DHT22;4207;49.314;7.162;2022-12-18T10:26:00;-4.40;99.90
8340;DHT22;4207;49.314;7.162;2022-12-18T10:28:30;-4.40;99.90
8340;DHT22;4207;49.314;7.162;2022-12-18T10:31:05;-4.40;99.90
8340;DHT22;4207;49.314;7.162;2022-12-18T10:33:33;-4.30;99.90
8340;DHT22;4207;49.314;7.162;2022-12-18T10:36:02;-4.30;99.90
8340;DHT22;4207;49.314;7.162;2022-12-18T10:38:31;-4.20;99.90
8340;DHT22;4207;49.314;7.162;2022-12-18T10:41:01;-4.20;99.90
8340;DHT22;4207;49.314;7.162;2022-12-18T10:43:30;-4.20;99.90
8340;DHT22;4207;49.314;7.162;2022-12-18T10:46:15;-4.10;99.90
8340;DHT22;4207;49.314;7.162;2022-12-18T10:48:51;-4.20;99.90
8340;DHT22;4207;49.314;7.162;2022-12-18T10:51:23;-4.20;99.90
8340;DHT22;4207;49.314;7.162;2022-12-18T10:53:54;-4.20;99.90
8340;DHT22;4207;49.314;7.162;2022-12-18T10:56:26;-4.20;99.90
8340;DHT22;4207;49.314;7.162;2022-12-18T10:59:00;-4.20;99.90
8340;DHT22;4207;49.314;7.162;2022-12-18T11:01:46;-4.10;99.90
8340;DHT22;4207;49.314;7.162;2022-12-18T11:04:18;-4.00;99.90
8340;DHT22;4207;49.314;7.162;2022-12-18T11:06:56;-4.00;99.90
8340;DHT22;4207;49.314;7.162;2022-12-18T11:09:25;-4.00;99.90
8340;DHT22;4207;49.314;7.162;2022-12-18T11:11:54;-3.90;99.90
8340;DHT22;4207;49.314;7.162;2022-12-18T11:14:28;-3.90;99.90
8340;DHT22;4207;49.314;7.162;2022-12-18T11:16:59;-3.80;99.90
8340;DHT22;4207;49.314;7.162;2022-12-18T11:19:52;-3.70;99.90
8340;DHT22;4207;49.314;7.162;2022-12-18T11:22:23;-3.70;99.90
8340;DHT22;4207;49.314;7.162;2022-12-18T11:24:56;-3.60;99.90
8340;DHT22;4207;49.314;7.162;2022-12-18T11:27:48;-3.60;99.90
8340;DHT22;4207;49.314;7.162;2022-12-18T11:30:22;-3.70;99.90
8340;DHT22;4207;49.314;7.162;2022-12-18T11:32:55;-3.70;99.90
8340;DHT22;4207;49.314;7.162;2022-12-18T11:35:32;-3.70;99.90
8340;DHT22;4207;49.314;7.162;2022-12-18T11:38:06;-3.70;99.90
8340;DHT22;4207;49.314;7.162;2022-12-18T11:40:40;-3.80;99.90
8340;DHT22;4207;49.314;7.162;2022-12-18T11:43:16;-3.70;99.90
8340;DHT22;4207;49.314;7.162;2022-12-18T11:45:50;-3.70;99.90
8340;DHT22;4207;49.314;7.162;2022-12-18T11:48:23;-3.60;99.90
8340;DHT22;4207;49.314;7.162;2022-12-18T11:50:53;-3.60;99.90
8340;DHT22;4207;49.314;7.162;2022-12-18T11:53:24;-3.60;99.90
8340;DHT22;4207;49.314;7.162;2022-12-18T11:56:03;-3.50;99.90
8340;DHT22;4207;49.314;7.162;2022-12-18T11:58:47;-3.50;99.90
8340;DHT22;4207;49.314;7.162;2022-12-18T12:01:24;-3.50;99.90
8340;DHT22;4207;49.314;7.162;2022-12-18T12:04:23;-3.50;99.90
8340;DHT22;4207;49.314;7.162;2022-12-18T12:07:02;-3.40;99.90
8340;DHT22;4207;49.314;7.162;2022-12-18T12:09:37;-3.40;99.90
8340;DHT22;4207;49.314;7.162;2022-12-18T12:12:26;-3.40;99.90
8340;DHT22;4207;49.314;7.162;2022-12-18T12:15:04;-3.30;99.90
8340;DHT22;4207;49.314;7.162;2022-12-18T12:17:44;-3.30;99.90
8340;DHT22;4207;49.314;7.162;2022-12-18T12:20:19;-3.30;99.90
8340;DHT22;4207;49.314;7.162;2022-12-18T12:22:53;-3.30;99.90
8340;DHT22;4207;49.314;7.162;2022-12-18T12:25:31;-3.30;99.90
8340;DHT22;4207;49.314;7.162;2022-12-18T12:28:13;-3.30;99.90
8340;DHT22;4207;49.314;7.162;2022-12-18T12:30:55;-3.30;99.90
8340;DHT22;4207;49.314;7.162;2022-12-18T12:33:36;-3.20;99.90
8340;DHT22;4207;49.314;7.162;2022-12-18T12:36:18;-3.20;99.90
8340;DHT22;4207;49.314;7.162;2022-12-18T12:38:53;-3.10;99.90
8340;DHT22;4207;49.314;7.162;2022-12-18T12:41:24;-3.00;99.90
8340;DHT22;4207;49.314;7.162;2022-12-18T12:44:17;-3.10;99.90
8340;DHT22;4207;49.314;7.162;2022-12-18T12:46:46;-3.10;99.90
8340;DHT22;4207;49.314;7.162;2022-12-18T12:49:18;-3.00;99.90
8340;DHT22;4207;49.314;7.162;2022-12-18T12:51:57;-3.10;99.90
8340;DHT22;4207;49.314;7.162;2022-12-18T12:54:27;-3.10;99.90
8340;DHT22;4207;49.314;7.162;2022-12-18T12:56:59;-3.00;99.90
8340;DHT22;4207;49.314;7.162;2022-12-18T12:59:34;-3.00;99.90
8340;DHT22;4207;49.314;7.162;2022-12-18T13:02:11;-3.00;99.90
8340;DHT22;4207;49.314;7.162;2022-12-18T13:04:47;-3.00;99.90
8340;DHT22;4207;49.314;7.162;2022-12-18T13:07:24;-2.90;99.90
8340;DHT22;4207;49.314;7.162;2022-12-18T13:10:24;-2.90;99.90
8340;DHT22;4207;49.314;7.162;2022-12-18T13:12:54;-2.90;99.90
8340;DHT22;4207;49.314;7.162;2022-12-18T13:15:32;-2.90;99.90
8340;DHT22;4207;49.314;7.162;2022-12-18T13:18:13;-2.90;99.90
8340;DHT22;4207;49.314;7.162;2022-12-18T13:20:43;-2.80;99.90
8340;DHT22;4207;49.314;7.162;2022-12-18T13:23:32;-2.80;99.90
8340;DHT22;4207;49.314;7.162;2022-12-18T13:26:28;-2.70;99.90
8340;DHT22;4207;49.314;7.162;2022-12-18T13:28:58;-2.70;99.90
8340;DHT22;4207;49.314;7.162;2022-12-18T13:31:59;-2.70;99.90
8340;DHT22;4207;49.314;7.162;2022-12-18T13:34:29;-2.60;99.90
8340;DHT22;4207;49.314;7.162;2022-12-18T13:40:02;-2.60;99.90
8340;DHT22;4207;49.314;7.162;2022-12-18T13:42:39;-2.50;99.90
8340;DHT22;4207;49.314;7.162;2022-12-18T13:45:43;-2.50;99.90
8340;DHT22;4207;49.314;7.162;2022-12-18T13:48:19;-2.60;99.90
8340;DHT22;4207;49.314;7.162;2022-12-18T13:50:53;-2.60;99.90
8340;DHT22;4207;49.314;7.162;2022-12-18T13:53:26;-2.70;99.90
8340;DHT22;4207;49.314;7.162;2022-12-18T13:55:56;-2.70;99.90
8340;DHT22;4207;49.314;7.162;2022-12-18T13:58:24;-2.70;99.90
8340;DHT22;4207;49.314;7.162;2022-12-18T14:00:52;-2.80;99.90
8340;DHT22;4207;49.314;7.162;2022-12-18T14:03:23;-2.80;99.90
8340;DHT22;4207;49.314;7.162;2022-12-18T14:05:56;-2.80;99.90
8340;DHT22;4207;49.314;7.162;2022-12-18T14:08:32;-2.80;99.90
8340;DHT22;4207;49.314;7.162;2022-12-18T14:11:03;-2.80;99.90
8340;DHT22;4207;49.314;7.162;2022-12-18T14:13:35;-2.80;99.90
8340;DHT22;4207;49.314;7.162;2022-12-18T14:16:06;-2.80;99.90
8340;DHT22;4207;49.314;7.162;2022-12-18T14:18:44;-2.80;99.90
8340;DHT22;4207;49.314;7.162;2022-12-18T14:21:19;-2.90;99.90
8340;DHT22;4207;49.314;7.162;2022-12-18T14:24:02;-2.90;99.90
8340;DHT22;4207;49.314;7.162;2022-12-18T14:26:34;-2.90;99.90
8340;DHT22;4207;49.314;7.162;2022-12-18T14:29:20;-3.00;99.90
8340;DHT22;4207;49.314;7.162;2022-12-18T14:32:03;-3.00;99.90
8340;DHT22;4207;49.314;7.162;2022-12-18T14:34:36;-3.00;99.90
8340;DHT22;4207;49.314;7.162;2022-12-18T14:37:04;-3.00;99.90
8340;DHT22;4207;49.314;7.162;2022-12-18T14:39:32;-3.00;99.90
8340;DHT22;4207;49.314;7.162;2022-12-18T14:42:01;-3.00;99.90
8340;DHT22;4207;49.314;7.162;2022-12-18T14:44:29;-3.00;99.90
8340;DHT22;4207;49.314;7.162;2022-12-18T14:47:13;-3.00;99.90
8340;DHT22;4207;49.314;7.162;2022-12-18T14:49:43;-3.00;99.90
8340;DHT22;4207;49.314;7.162;2022-12-18T14:52:22;-3.00;99.90
8340;DHT22;4207;49.314;7.162;2022-12-18T14:54:52;-3.00;99.90
8340;DHT22;4207;49.314;7.162;2022-12-18T14:57:24;-3.00;99.90
8340;DHT22;4207;49.314;7.162;2022-12-18T14:59:53;-3.10;99.90
8340;DHT22;4207;49.314;7.162;2022-12-18T15:02:22;-3.10;99.90
8340;DHT22;4207;49.314;7.162;2022-12-18T15:05:00;-3.10;99.90
8340;DHT22;4207;49.314;7.162;2022-12-18T15:07:40;-3.10;99.90
8340;DHT22;4207;49.314;7.162;2022-12-18T15:10:11;-3.20;99.90
8340;DHT22;4207;49.314;7.162;2022-12-18T15:12:43;-3.20;99.90
8340;DHT22;4207;49.314;7.162;2022-12-18T15:15:46;-3.20;99.90
8340;DHT22;4207;49.314;7.162;2022-12-18T15:18:15;-3.20;99.90
8340;DHT22;4207;49.314;7.162;2022-12-18T15:20:49;-3.20;99.90
8340;DHT22;4207;49.314;7.162;2022-12-18T15:23:20;-3.20;99.90
8340;DHT22;4207;49.314;7.162;2022-12-18T15:25:55;-3.20;99.90
8340;DHT22;4207;49.314;7.162;2022-12-18T15:28:27;-3.20;99.90
8340;DHT22;4207;49.314;7.162;2022-12-18T15:31:02;-3.30;99.90
8340;DHT22;4207;49.314;7.162;2022-12-18T15:33:32;-3.30;99.90
8340;DHT22;4207;49.314;7.162;2022-12-18T15:36:02;-3.40;99.90
8340;DHT22;4207;49.314;7.162;2022-12-18T15:38:32;-3.40;99.90
8340;DHT22;4207;49.314;7.162;2022-12-18T15:41:00;-3.40;99.90
8340;DHT22;4207;49.314;7.162;2022-12-18T15:43:30;-3.50;99.90
8340;DHT22;4207;49.314;7.162;2022-12-18T15:46:01;-3.50;99.90
8340;DHT22;4207;49.314;7.162;2022-12-18T15:48:29;-3.50;99.90
8340;DHT22;4207;49.314;7.162;2022-12-18T15:50:58;-3.50;99.90
8340;DHT22;4207;49.314;7.162;2022-12-18T15:53:29;-3.50;99.90
8340;DHT22;4207;49.314;7.162;2022-12-18T15:55:58;-3.50;99.90
8340;DHT22;4207;49.314;7.162;2022-12-18T15:58:45;-3.60;99.90
8340;DHT22;4207;49.314;7.162;2022-12-18T16:01:13;-3.50;99.90
8340;DHT22;4207;49.314;7.162;2022-12-18T16:03:45;-3.50;99.90
8340;DHT22;4207;49.314;7.162;2022-12-18T16:06:13;-3.50;99.90
8340;DHT22;4207;49.314;7.162;2022-12-18T16:08:41;-3.50;99.90
8340;DHT22;4207;49.314;7.162;2022-12-18T16:11:20;-3.50;99.90
8340;DHT22;4207;49.314;7.162;2022-12-18T16:14:10;-3.50;99.90
8340;DHT22;4207;49.314;7.162;2022-12-18T16:16:40;-3.50;99.90
8340;DHT22;4207;49.314;7.162;2022-12-18T16:19:08;-3.50;99.90
8340;DHT22;4207;49.314;7.162;2022-12-18T16:21:36;-3.50;99.90
8340;DHT22;4207;49.314;7.162;2022-12-18T16:24:05;-3.50;99.90
8340;DHT22;4207;49.314;7.162;2022-12-18T16:26:33;-3.50;99.90
8340;DHT22;4207;49.314;7.162;2022-12-18T16:29:01;-3.50;99.90
8340;DHT22;4207;49.314;7.162;2022-12-18T16:31:31;-3.50;99.90
8340;DHT22;4207;49.314;7.162;2022-12-18T16:34:13;-3.50;99.90
8340;DHT22;4207;49.314;7.162;2022-12-18T16:36:41;-3.50;99.90
8340;DHT22;4207;49.314;7.162;2022-12-18T16:39:10;-3.50;99.90
8340;DHT22;4207;49.314;7.162;2022-12-18T16:41:37;-3.50;99.90